Terminal Aerodrome Forecast
Issued by NWS

Home | Current Version | Previous Version | Text Only | Print | Product List | Glossary On
Versions: 1 2 3 4 5 6 7 8 9 10 11 12 13
982
FTUS45 KPSR 211742
TAFBLH
TAF
KBLH 211742Z 2118/2218 19015G25KT P6SM SKC
     FM212100 21020G30KT P6SM SKC
     FM220300 24016G26KT P6SM SKC
     FM220900 30005KT P6SM SKC=

USA.gov is the U.S. government's official web portal to all federal, state and local government web resources and services.